sensor_id;sensor_type;location;lat;lon;timestamp;P1;durP1;ratioP1;P2;durP2;ratioP2
26686;SDS011;14298;50.900;4.648;2023-07-02T00:00:22;6.13;;;3.70;;
26686;SDS011;14298;50.900;4.648;2023-07-02T00:02:50;11.83;;;4.73;;
26686;SDS011;14298;50.900;4.648;2023-07-02T00:05:18;6.83;;;4.23;;
26686;SDS011;14298;50.900;4.648;2023-07-02T00:07:46;11.83;;;5.00;;
26686;SDS011;14298;50.900;4.648;2023-07-02T00:10:14;8.40;;;5.20;;
26686;SDS011;14298;50.900;4.648;2023-07-02T00:12:42;8.33;;;4.70;;
26686;SDS011;14298;50.900;4.648;2023-07-02T00:15:11;7.13;;;4.30;;
26686;SDS011;14298;50.900;4.648;2023-07-02T00:17:39;9.23;;;4.70;;
26686;SDS011;14298;50.900;4.648;2023-07-02T00:20:07;6.80;;;4.33;;
26686;SDS011;14298;50.900;4.648;2023-07-02T00:22:37;9.33;;;5.00;;
26686;SDS011;14298;50.900;4.648;2023-07-02T00:25:05;6.37;;;4.50;;
26686;SDS011;14298;50.900;4.648;2023-07-02T00:27:33;16.03;;;5.17;;
26686;SDS011;14298;50.900;4.648;2023-07-02T00:30:01;7.43;;;4.53;;
26686;SDS011;14298;50.900;4.648;2023-07-02T00:32:29;10.27;;;5.27;;
26686;SDS011;14298;50.900;4.648;2023-07-02T00:34:57;13.37;;;3.77;;
26686;SDS011;14298;50.900;4.648;2023-07-02T00:37:25;12.43;;;6.10;;
26686;SDS011;14298;50.900;4.648;2023-07-02T00:39:53;6.27;;;4.40;;
26686;SDS011;14298;50.900;4.648;2023-07-02T00:42:21;8.77;;;4.57;;
26686;SDS011;14298;50.900;4.648;2023-07-02T00:44:50;10.13;;;5.77;;
26686;SDS011;14298;50.900;4.648;2023-07-02T00:47:19;5.83;;;4.23;;
26686;SDS011;14298;50.900;4.648;2023-07-02T00:49:47;7.37;;;3.97;;
26686;SDS011;14298;50.900;4.648;2023-07-02T00:52:15;13.50;;;5.87;;
26686;SDS011;14298;50.900;4.648;2023-07-02T00:54:45;11.43;;;4.97;;
26686;SDS011;14298;50.900;4.648;2023-07-02T00:57:13;8.37;;;5.67;;
26686;SDS011;14298;50.900;4.648;2023-07-02T00:59:41;7.90;;;4.40;;
26686;SDS011;14298;50.900;4.648;2023-07-02T01:02:09;12.53;;;5.17;;
26686;SDS011;14298;50.900;4.648;2023-07-02T01:04:39;7.50;;;5.63;;
26686;SDS011;14298;50.900;4.648;2023-07-02T01:07:07;9.90;;;6.37;;
26686;SDS011;14298;50.900;4.648;2023-07-02T01:09:37;9.97;;;5.27;;
26686;SDS011;14298;50.900;4.648;2023-07-02T01:12:05;6.33;;;5.10;;
26686;SDS011;14298;50.900;4.648;2023-07-02T01:14:36;9.87;;;6.50;;
26686;SDS011;14298;50.900;4.648;2023-07-02T01:17:04;11.83;;;5.43;;
26686;SDS011;14298;50.900;4.648;2023-07-02T01:22:02;13.43;;;5.27;;
26686;SDS011;14298;50.900;4.648;2023-07-02T01:24:30;6.70;;;4.93;;
26686;SDS011;14298;50.900;4.648;2023-07-02T01:26:58;12.90;;;5.43;;
26686;SDS011;14298;50.900;4.648;2023-07-02T01:29:29;6.57;;;4.00;;
26686;SDS011;14298;50.900;4.648;2023-07-02T01:31:57;13.40;;;6.23;;
26686;SDS011;14298;50.900;4.648;2023-07-02T01:37:14;10.90;;;5.30;;
26686;SDS011;14298;50.900;4.648;2023-07-02T01:39:44;10.70;;;5.43;;
26686;SDS011;14298;50.900;4.648;2023-07-02T01:44:44;12.90;;;6.53;;
26686;SDS011;14298;50.900;4.648;2023-07-02T01:47:13;7.60;;;5.30;;
26686;SDS011;14298;50.900;4.648;2023-07-02T01:49:42;11.73;;;4.67;;
26686;SDS011;14298;50.900;4.648;2023-07-02T01:52:10;11.37;;;5.47;;
26686;SDS011;14298;50.900;4.648;2023-07-02T01:54:38;15.60;;;6.13;;
26686;SDS011;14298;50.900;4.648;2023-07-02T01:57:06;13.37;;;6.80;;
26686;SDS011;14298;50.900;4.648;2023-07-02T01:59:34;9.13;;;6.03;;
26686;SDS011;14298;50.900;4.648;2023-07-02T02:02:02;7.57;;;5.03;;
26686;SDS011;14298;50.900;4.648;2023-07-02T02:04:30;8.60;;;6.00;;
26686;SDS011;14298;50.900;4.648;2023-07-02T02:06:58;10.20;;;4.97;;
26686;SDS011;14298;50.900;4.648;2023-07-02T02:09:26;13.20;;;5.83;;
26686;SDS011;14298;50.900;4.648;2023-07-02T02:11:55;16.10;;;7.30;;
26686;SDS011;14298;50.900;4.648;2023-07-02T02:14:23;11.37;;;7.13;;
26686;SDS011;14298;50.900;4.648;2023-07-02T02:16:51;13.03;;;6.07;;
26686;SDS011;14298;50.900;4.648;2023-07-02T02:19:19;14.93;;;6.90;;
26686;SDS011;14298;50.900;4.648;2023-07-02T02:21:47;10.60;;;6.10;;
26686;SDS011;14298;50.900;4.648;2023-07-02T02:24:15;8.13;;;6.07;;
26686;SDS011;14298;50.900;4.648;2023-07-02T02:26:43;12.60;;;6.13;;
26686;SDS011;14298;50.900;4.648;2023-07-02T02:29:11;11.27;;;5.37;;
26686;SDS011;14298;50.900;4.648;2023-07-02T02:31:39;6.87;;;5.73;;
26686;SDS011;14298;50.900;4.648;2023-07-02T02:34:07;9.77;;;6.60;;
26686;SDS011;14298;50.900;4.648;2023-07-02T02:36:35;15.00;;;6.27;;
26686;SDS011;14298;50.900;4.648;2023-07-02T02:39:03;6.53;;;4.97;;
26686;SDS011;14298;50.900;4.648;2023-07-02T02:41:32;8.37;;;5.80;;
26686;SDS011;14298;50.900;4.648;2023-07-02T02:44:00;13.20;;;6.43;;
26686;SDS011;14298;50.900;4.648;2023-07-02T02:46:28;13.70;;;6.60;;
26686;SDS011;14298;50.900;4.648;2023-07-02T02:48:55;11.27;;;7.30;;
26686;SDS011;14298;50.900;4.648;2023-07-02T02:51:24;11.30;;;5.97;;
26686;SDS011;14298;50.900;4.648;2023-07-02T02:53:52;13.17;;;6.53;;
26686;SDS011;14298;50.900;4.648;2023-07-02T02:56:20;16.20;;;6.80;;
26686;SDS011;14298;50.900;4.648;2023-07-02T02:58:48;15.10;;;7.13;;
26686;SDS011;14298;50.900;4.648;2023-07-02T03:01:15;16.73;;;6.70;;
26686;SDS011;14298;50.900;4.648;2023-07-02T03:03:44;18.50;;;6.53;;
26686;SDS011;14298;50.900;4.648;2023-07-02T03:06:14;10.63;;;6.13;;
26686;SDS011;14298;50.900;4.648;2023-07-02T03:08:42;16.23;;;7.03;;
26686;SDS011;14298;50.900;4.648;2023-07-02T03:11:10;9.77;;;7.03;;
26686;SDS011;14298;50.900;4.648;2023-07-02T03:13:38;14.37;;;5.50;;
26686;SDS011;14298;50.900;4.648;2023-07-02T03:16:06;12.73;;;6.90;;
26686;SDS011;14298;50.900;4.648;2023-07-02T03:18:34;14.17;;;6.73;;
26686;SDS011;14298;50.900;4.648;2023-07-02T03:21:02;11.87;;;6.70;;
26686;SDS011;14298;50.900;4.648;2023-07-02T03:23:30;10.67;;;6.07;;
26686;SDS011;14298;50.900;4.648;2023-07-02T03:25:58;10.77;;;5.97;;
26686;SDS011;14298;50.900;4.648;2023-07-02T03:28:26;13.13;;;7.10;;
26686;SDS011;14298;50.900;4.648;2023-07-02T03:30:54;7.30;;;5.23;;
26686;SDS011;14298;50.900;4.648;2023-07-02T03:33:22;15.37;;;6.30;;
26686;SDS011;14298;50.900;4.648;2023-07-02T03:35:50;11.83;;;6.53;;
26686;SDS011;14298;50.900;4.648;2023-07-02T03:38:18;15.77;;;7.30;;
26686;SDS011;14298;50.900;4.648;2023-07-02T03:40:46;20.00;;;8.50;;
26686;SDS011;14298;50.900;4.648;2023-07-02T03:43:14;9.93;;;5.87;;
26686;SDS011;14298;50.900;4.648;2023-07-02T03:45:42;8.73;;;5.60;;
26686;SDS011;14298;50.900;4.648;2023-07-02T03:48:10;11.63;;;6.40;;
26686;SDS011;14298;50.900;4.648;2023-07-02T03:50:38;17.70;;;7.83;;
26686;SDS011;14298;50.900;4.648;2023-07-02T03:53:06;16.67;;;6.40;;
26686;SDS011;14298;50.900;4.648;2023-07-02T03:55:34;14.00;;;7.07;;
26686;SDS011;14298;50.900;4.648;2023-07-02T03:58:02;14.00;;;6.90;;
26686;SDS011;14298;50.900;4.648;2023-07-02T04:00:30;9.23;;;6.33;;
26686;SDS011;14298;50.900;4.648;2023-07-02T04:02:58;13.60;;;7.20;;
26686;SDS011;14298;50.900;4.648;2023-07-02T04:05:26;18.07;;;7.33;;
26686;SDS011;14298;50.900;4.648;2023-07-02T04:07:54;11.53;;;7.20;;
26686;SDS011;14298;50.900;4.648;2023-07-02T04:10:22;18.03;;;7.03;;
26686;SDS011;14298;50.900;4.648;2023-07-02T04:12:50;12.10;;;7.37;;
26686;SDS011;14298;50.900;4.648;2023-07-02T04:15:18;17.67;;;6.77;;
26686;SDS011;14298;50.900;4.648;2023-07-02T04:17:46;13.43;;;8.03;;
26686;SDS011;14298;50.900;4.648;2023-07-02T04:20:14;11.63;;;7.30;;
26686;SDS011;14298;50.900;4.648;2023-07-02T04:22:42;7.17;;;6.13;;
26686;SDS011;14298;50.900;4.648;2023-07-02T04:25:11;12.50;;;7.63;;
26686;SDS011;14298;50.900;4.648;2023-07-02T04:27:41;11.83;;;7.27;;
26686;SDS011;14298;50.900;4.648;2023-07-02T04:30:09;11.30;;;7.97;;
26686;SDS011;14298;50.900;4.648;2023-07-02T04:32:38;14.07;;;7.53;;
26686;SDS011;14298;50.900;4.648;2023-07-02T04:35:09;17.80;;;8.40;;
26686;SDS011;14298;50.900;4.648;2023-07-02T04:37:39;9.47;;;6.77;;
26686;SDS011;14298;50.900;4.648;2023-07-02T04:40:07;12.30;;;6.60;;
26686;SDS011;14298;50.900;4.648;2023-07-02T04:42:37;15.27;;;7.40;;
26686;SDS011;14298;50.900;4.648;2023-07-02T04:45:05;12.43;;;8.37;;
26686;SDS011;14298;50.900;4.648;2023-07-02T04:47:36;13.67;;;9.07;;
26686;SDS011;14298;50.900;4.648;2023-07-02T04:50:05;25.90;;;8.60;;
26686;SDS011;14298;50.900;4.648;2023-07-02T04:52:33;13.73;;;6.47;;
26686;SDS011;14298;50.900;4.648;2023-07-02T04:55:02;15.90;;;9.07;;
26686;SDS011;14298;50.900;4.648;2023-07-02T04:57:30;18.17;;;7.53;;
26686;SDS011;14298;50.900;4.648;2023-07-02T04:59:58;13.03;;;7.20;;
26686;SDS011;14298;50.900;4.648;2023-07-02T05:02:26;18.47;;;7.37;;
26686;SDS011;14298;50.900;4.648;2023-07-02T05:04:54;11.90;;;7.07;;
26686;SDS011;14298;50.900;4.648;2023-07-02T05:07:22;10.83;;;5.80;;
26686;SDS011;14298;50.900;4.648;2023-07-02T05:09:50;11.07;;;7.73;;
26686;SDS011;14298;50.900;4.648;2023-07-02T05:12:19;11.43;;;6.97;;
26686;SDS011;14298;50.900;4.648;2023-07-02T05:14:47;10.97;;;7.03;;
26686;SDS011;14298;50.900;4.648;2023-07-02T05:17:15;13.20;;;7.07;;
26686;SDS011;14298;50.900;4.648;2023-07-02T05:19:44;13.50;;;7.37;;
26686;SDS011;14298;50.900;4.648;2023-07-02T05:22:12;21.03;;;7.33;;
26686;SDS011;14298;50.900;4.648;2023-07-02T05:24:40;15.43;;;7.93;;
26686;SDS011;14298;50.900;4.648;2023-07-02T05:27:09;14.73;;;7.57;;
26686;SDS011;14298;50.900;4.648;2023-07-02T05:29:37;17.67;;;8.20;;
26686;SDS011;14298;50.900;4.648;2023-07-02T05:32:05;22.03;;;9.03;;
26686;SDS011;14298;50.900;4.648;2023-07-02T05:34:33;10.77;;;7.03;;
26686;SDS011;14298;50.900;4.648;2023-07-02T05:37:01;12.90;;;7.33;;
26686;SDS011;14298;50.900;4.648;2023-07-02T05:39:29;17.83;;;7.30;;
26686;SDS011;14298;50.900;4.648;2023-07-02T05:41:57;12.63;;;7.17;;
26686;SDS011;14298;50.900;4.648;2023-07-02T05:44:25;11.47;;;6.87;;
26686;SDS011;14298;50.900;4.648;2023-07-02T05:46:53;14.43;;;6.67;;
26686;SDS011;14298;50.900;4.648;2023-07-02T05:49:21;13.97;;;7.43;;
26686;SDS011;14298;50.900;4.648;2023-07-02T05:51:50;17.93;;;7.93;;
26686;SDS011;14298;50.900;4.648;2023-07-02T05:54:17;17.67;;;7.90;;
26686;SDS011;14298;50.900;4.648;2023-07-02T05:56:45;11.23;;;8.10;;
26686;SDS011;14298;50.900;4.648;2023-07-02T05:59:13;12.03;;;7.10;;
26686;SDS011;14298;50.900;4.648;2023-07-02T06:01:43;14.53;;;8.00;;
26686;SDS011;14298;50.900;4.648;2023-07-02T06:04:11;11.83;;;8.20;;
26686;SDS011;14298;50.900;4.648;2023-07-02T06:06:39;9.33;;;6.60;;
26686;SDS011;14298;50.900;4.648;2023-07-02T06:09:07;13.87;;;6.83;;
26686;SDS011;14298;50.900;4.648;2023-07-02T06:11:35;12.70;;;6.53;;
26686;SDS011;14298;50.900;4.648;2023-07-02T06:14:05;12.93;;;7.43;;
26686;SDS011;14298;50.900;4.648;2023-07-02T06:16:33;14.90;;;7.50;;
26686;SDS011;14298;50.900;4.648;2023-07-02T06:19:01;12.20;;;7.70;;
26686;SDS011;14298;50.900;4.648;2023-07-02T06:21:29;13.03;;;7.37;;
26686;SDS011;14298;50.900;4.648;2023-07-02T06:23:57;13.97;;;7.17;;
26686;SDS011;14298;50.900;4.648;2023-07-02T06:26:25;12.20;;;7.53;;
26686;SDS011;14298;50.900;4.648;2023-07-02T06:28:53;9.60;;;6.57;;
26686;SDS011;14298;50.900;4.648;2023-07-02T06:31:21;18.73;;;7.47;;
26686;SDS011;14298;50.900;4.648;2023-07-02T06:33:49;13.47;;;7.67;;
26686;SDS011;14298;50.900;4.648;2023-07-02T06:36:18;17.77;;;8.30;;
26686;SDS011;14298;50.900;4.648;2023-07-02T06:38:46;18.03;;;7.17;;
26686;SDS011;14298;50.900;4.648;2023-07-02T06:41:14;11.97;;;7.33;;
26686;SDS011;14298;50.900;4.648;2023-07-02T06:43:42;25.23;;;7.37;;
26686;SDS011;14298;50.900;4.648;2023-07-02T06:46:11;9.40;;;6.20;;
26686;SDS011;14298;50.900;4.648;2023-07-02T06:48:39;9.80;;;5.90;;
26686;SDS011;14298;50.900;4.648;2023-07-02T06:51:07;14.07;;;6.67;;
26686;SDS011;14298;50.900;4.648;2023-07-02T06:53:35;8.47;;;5.53;;
26686;SDS011;14298;50.900;4.648;2023-07-02T06:56:04;15.33;;;6.67;;
26686;SDS011;14298;50.900;4.648;2023-07-02T06:58:32;8.83;;;5.67;;
26686;SDS011;14298;50.900;4.648;2023-07-02T07:01:01;12.43;;;5.90;;
26686;SDS011;14298;50.900;4.648;2023-07-02T07:03:29;21.13;;;7.23;;
26686;SDS011;14298;50.900;4.648;2023-07-02T07:05:57;6.55;;;4.42;;
26686;SDS011;14298;50.900;4.648;2023-07-02T07:08:25;11.10;;;5.50;;
26686;SDS011;14298;50.900;4.648;2023-07-02T07:10:53;9.33;;;4.47;;
26686;SDS011;14298;50.900;4.648;2023-07-02T07:13:21;5.63;;;4.03;;
26686;SDS011;14298;50.900;4.648;2023-07-02T07:15:49;5.90;;;3.90;;
26686;SDS011;14298;50.900;4.648;2023-07-02T07:18:17;6.63;;;3.80;;
26686;SDS011;14298;50.900;4.648;2023-07-02T07:20:45;11.57;;;4.70;;
26686;SDS011;14298;50.900;4.648;2023-07-02T07:23:15;8.77;;;4.93;;
26686;SDS011;14298;50.900;4.648;2023-07-02T07:25:44;7.03;;;4.17;;
26686;SDS011;14298;50.900;4.648;2023-07-02T07:28:12;8.43;;;4.50;;
26686;SDS011;14298;50.900;4.648;2023-07-02T07:30:42;8.57;;;5.13;;
26686;SDS011;14298;50.900;4.648;2023-07-02T07:33:10;8.10;;;4.47;;
26686;SDS011;14298;50.900;4.648;2023-07-02T07:35:38;7.17;;;3.10;;
26686;SDS011;14298;50.900;4.648;2023-07-02T07:38:06;5.83;;;3.70;;
26686;SDS011;14298;50.900;4.648;2023-07-02T07:40:34;7.03;;;3.57;;
26686;SDS011;14298;50.900;4.648;2023-07-02T07:43:02;5.83;;;2.90;;
26686;SDS011;14298;50.900;4.648;2023-07-02T07:45:30;4.60;;;3.10;;
26686;SDS011;14298;50.900;4.648;2023-07-02T07:47:58;8.47;;;3.40;;
26686;SDS011;14298;50.900;4.648;2023-07-02T07:50:26;5.70;;;2.67;;
26686;SDS011;14298;50.900;4.648;2023-07-02T07:52:54;4.70;;;2.80;;
26686;SDS011;14298;50.900;4.648;2023-07-02T07:55:22;4.13;;;2.73;;
26686;SDS011;14298;50.900;4.648;2023-07-02T07:57:50;4.63;;;2.70;;
26686;SDS011;14298;50.900;4.648;2023-07-02T08:00:18;5.20;;;2.90;;
26686;SDS011;14298;50.900;4.648;2023-07-02T08:02:46;6.67;;;2.67;;
26686;SDS011;14298;50.900;4.648;2023-07-02T08:05:14;3.53;;;2.23;;
26686;SDS011;14298;50.900;4.648;2023-07-02T08:07:42;5.93;;;2.83;;
26686;SDS011;14298;50.900;4.648;2023-07-02T08:10:10;4.67;;;2.30;;
26686;SDS011;14298;50.900;4.648;2023-07-02T08:12:38;5.30;;;2.33;;
26686;SDS011;14298;50.900;4.648;2023-07-02T08:15:07;4.33;;;2.47;;
26686;SDS011;14298;50.900;4.648;2023-07-02T08:17:35;3.13;;;1.57;;
26686;SDS011;14298;50.900;4.648;2023-07-02T08:20:03;5.47;;;1.70;;
26686;SDS011;14298;50.900;4.648;2023-07-02T08:22:31;7.53;;;2.37;;
26686;SDS011;14298;50.900;4.648;2023-07-02T08:24:59;5.30;;;2.50;;
26686;SDS011;14298;50.900;4.648;2023-07-02T08:27:27;5.30;;;2.37;;
26686;SDS011;14298;50.900;4.648;2023-07-02T08:29:55;5.87;;;2.13;;
26686;SDS011;14298;50.900;4.648;2023-07-02T08:32:23;3.80;;;2.10;;
26686;SDS011;14298;50.900;4.648;2023-07-02T08:34:51;7.30;;;2.57;;
26686;SDS011;14298;50.900;4.648;2023-07-02T08:37:20;2.63;;;2.00;;
26686;SDS011;14298;50.900;4.648;2023-07-02T08:39:48;1.77;;;1.50;;
26686;SDS011;14298;50.900;4.648;2023-07-02T08:42:17;3.97;;;2.03;;
26686;SDS011;14298;50.900;4.648;2023-07-02T08:44:45;6.83;;;2.20;;
26686;SDS011;14298;50.900;4.648;2023-07-02T08:47:14;3.30;;;1.53;;
26686;SDS011;14298;50.900;4.648;2023-07-02T08:49:42;3.20;;;2.58;;
26686;SDS011;14298;50.900;4.648;2023-07-02T08:52:10;5.37;;;1.93;;
26686;SDS011;14298;50.900;4.648;2023-07-02T08:54:38;4.80;;;1.87;;
26686;SDS011;14298;50.900;4.648;2023-07-02T08:57:06;3.83;;;2.52;;
26686;SDS011;14298;50.900;4.648;2023-07-02T08:59:39;8.45;;;2.83;;
26686;SDS011;14298;50.900;4.648;2023-07-02T09:02:04;6.30;;;2.87;;
26686;SDS011;14298;50.900;4.648;2023-07-02T09:04:32;5.28;;;2.90;;
26686;SDS011;14298;50.900;4.648;2023-07-02T09:07:04;4.92;;;2.67;;
26686;SDS011;14298;50.900;4.648;2023-07-02T09:09:32;3.10;;;2.65;;
26686;SDS011;14298;50.900;4.648;2023-07-02T09:12:01;4.65;;;3.02;;
26686;SDS011;14298;50.900;4.648;2023-07-02T09:14:29;5.30;;;2.80;;
26686;SDS011;14298;50.900;4.648;2023-07-02T09:17:01;9.30;;;3.12;;
26686;SDS011;14298;50.900;4.648;2023-07-02T09:19:30;4.60;;;3.00;;
26686;SDS011;14298;50.900;4.648;2023-07-02T09:21:58;4.17;;;2.58;;
26686;SDS011;14298;50.900;4.648;2023-07-02T09:24:29;5.20;;;2.83;;
26686;SDS011;14298;50.900;4.648;2023-07-02T09:26:58;3.35;;;2.33;;
26686;SDS011;14298;50.900;4.648;2023-07-02T09:29:27;9.78;;;2.95;;
26686;SDS011;14298;50.900;4.648;2023-07-02T09:31:57;5.37;;;2.98;;
26686;SDS011;14298;50.900;4.648;2023-07-02T09:34:31;7.03;;;2.62;;
26686;SDS011;14298;50.900;4.648;2023-07-02T09:37:01;14.03;;;2.98;;
26686;SDS011;14298;50.900;4.648;2023-07-02T09:39:30;5.83;;;4.03;;
26686;SDS011;14298;50.900;4.648;2023-07-02T09:41:59;6.63;;;4.07;;
26686;SDS011;14298;50.900;4.648;2023-07-02T09:44:28;11.37;;;4.40;;
26686;SDS011;14298;50.900;4.648;2023-07-02T09:49:33;5.20;;;2.97;;
26686;SDS011;14298;50.900;4.648;2023-07-02T09:52:11;4.20;;;2.87;;
26686;SDS011;14298;50.900;4.648;2023-07-02T09:54:39;6.47;;;3.57;;
26686;SDS011;14298;50.900;4.648;2023-07-02T09:57:09;8.90;;;4.00;;
26686;SDS011;14298;50.900;4.648;2023-07-02T10:02:24;8.10;;;3.17;;
26686;SDS011;14298;50.900;4.648;2023-07-02T10:04:52;4.73;;;2.97;;
26686;SDS011;14298;50.900;4.648;2023-07-02T10:07:28;13.97;;;3.80;;
26686;SDS011;14298;50.900;4.648;2023-07-02T10:09:56;9.57;;;3.47;;
26686;SDS011;14298;50.900;4.648;2023-07-02T10:12:25;10.87;;;3.83;;
26686;SDS011;14298;50.900;4.648;2023-07-02T10:14:54;6.70;;;3.73;;
26686;SDS011;14298;50.900;4.648;2023-07-02T10:17:28;5.90;;;3.07;;
26686;SDS011;14298;50.900;4.648;2023-07-02T10:19:53;7.27;;;3.67;;
26686;SDS011;14298;50.900;4.648;2023-07-02T10:22:21;13.40;;;3.13;;
26686;SDS011;14298;50.900;4.648;2023-07-02T10:24:53;8.77;;;4.23;;
26686;SDS011;14298;50.900;4.648;2023-07-02T10:27:32;7.03;;;3.67;;
26686;SDS011;14298;50.900;4.648;2023-07-02T10:29:51;3.73;;;2.90;;
26686;SDS011;14298;50.900;4.648;2023-07-02T10:35:18;7.10;;;4.03;;
26686;SDS011;14298;50.900;4.648;2023-07-02T10:37:42;5.00;;;3.27;;
26686;SDS011;14298;50.900;4.648;2023-07-02T10:40:11;3.70;;;2.80;;
26686;SDS011;14298;50.900;4.648;2023-07-02T10:42:46;12.67;;;3.47;;
26686;SDS011;14298;50.900;4.648;2023-07-02T10:45:14;7.63;;;3.70;;
26686;SDS011;14298;50.900;4.648;2023-07-02T10:47:43;4.47;;;2.92;;
26686;SDS011;14298;50.900;4.648;2023-07-02T10:52:43;7.72;;;3.65;;
26686;SDS011;14298;50.900;4.648;2023-07-02T10:55:21;7.37;;;2.87;;
26686;SDS011;14298;50.900;4.648;2023-07-02T10:57:50;4.77;;;3.07;;
26686;SDS011;14298;50.900;4.648;2023-07-02T11:00:18;6.03;;;3.37;;
26686;SDS011;14298;50.900;4.648;2023-07-02T11:02:47;6.27;;;3.30;;
26686;SDS011;14298;50.900;4.648;2023-07-02T11:05:14;5.10;;;2.23;;
26686;SDS011;14298;50.900;4.648;2023-07-02T11:07:43;6.83;;;2.23;;
26686;SDS011;14298;50.900;4.648;2023-07-02T11:10:16;3.90;;;2.90;;
26686;SDS011;14298;50.900;4.648;2023-07-02T11:12:41;6.27;;;3.00;;
26686;SDS011;14298;50.900;4.648;2023-07-02T11:17:38;6.70;;;3.57;;
26686;SDS011;14298;50.900;4.648;2023-07-02T11:20:09;5.13;;;3.10;;
26686;SDS011;14298;50.900;4.648;2023-07-02T11:22:37;3.90;;;3.10;;
26686;SDS011;14298;50.900;4.648;2023-07-02T11:25:09;3.97;;;2.67;;
26686;SDS011;14298;50.900;4.648;2023-07-02T11:27:37;8.47;;;3.40;;
26686;SDS011;14298;50.900;4.648;2023-07-02T11:30:06;5.53;;;3.27;;
26686;SDS011;14298;50.900;4.648;2023-07-02T11:32:47;14.07;;;3.37;;
26686;SDS011;14298;50.900;4.648;2023-07-02T11:35:18;8.13;;;3.70;;
26686;SDS011;14298;50.900;4.648;2023-07-02T11:37:47;16.03;;;3.23;;
26686;SDS011;14298;50.900;4.648;2023-07-02T11:40:21;5.27;;;2.87;;
26686;SDS011;14298;50.900;4.648;2023-07-02T11:42:46;2.58;;;2.12;;
26686;SDS011;14298;50.900;4.648;2023-07-02T11:45:14;4.10;;;3.10;;
26686;SDS011;14298;50.900;4.648;2023-07-02T11:47:42;5.70;;;3.20;;
26686;SDS011;14298;50.900;4.648;2023-07-02T11:50:10;5.62;;;2.40;;
26686;SDS011;14298;50.900;4.648;2023-07-02T11:52:38;8.63;;;3.93;;
26686;SDS011;14298;50.900;4.648;2023-07-02T11:55:06;5.60;;;3.22;;
26686;SDS011;14298;50.900;4.648;2023-07-02T11:57:34;11.07;;;3.33;;
26686;SDS011;14298;50.900;4.648;2023-07-02T12:00:02;6.30;;;3.60;;
26686;SDS011;14298;50.900;4.648;2023-07-02T12:02:30;14.40;;;3.70;;
26686;SDS011;14298;50.900;4.648;2023-07-02T12:04:58;4.70;;;2.98;;
26686;SDS011;14298;50.900;4.648;2023-07-02T12:07:26;6.05;;;2.98;;
26686;SDS011;14298;50.900;4.648;2023-07-02T12:09:54;5.20;;;2.37;;
26686;SDS011;14298;50.900;4.648;2023-07-02T12:12:23;6.15;;;3.33;;
26686;SDS011;14298;50.900;4.648;2023-07-02T12:14:51;5.05;;;2.85;;
26686;SDS011;14298;50.900;4.648;2023-07-02T12:17:19;4.67;;;2.67;;
26686;SDS011;14298;50.900;4.648;2023-07-02T12:19:47;3.80;;;2.72;;
26686;SDS011;14298;50.900;4.648;2023-07-02T12:22:15;3.33;;;2.55;;
26686;SDS011;14298;50.900;4.648;2023-07-02T12:24:44;4.70;;;2.90;;
26686;SDS011;14298;50.900;4.648;2023-07-02T12:27:13;4.43;;;2.63;;
26686;SDS011;14298;50.900;4.648;2023-07-02T12:29:41;6.15;;;3.17;;
26686;SDS011;14298;50.900;4.648;2023-07-02T12:32:09;8.97;;;3.57;;
26686;SDS011;14298;50.900;4.648;2023-07-02T12:34:37;6.95;;;3.02;;
26686;SDS011;14298;50.900;4.648;2023-07-02T12:37:05;2.63;;;2.43;;
26686;SDS011;14298;50.900;4.648;2023-07-02T12:39:33;7.77;;;3.33;;
26686;SDS011;14298;50.900;4.648;2023-07-02T12:42:02;9.40;;;3.63;;
26686;SDS011;14298;50.900;4.648;2023-07-02T12:44:30;3.97;;;2.80;;
26686;SDS011;14298;50.900;4.648;2023-07-02T12:46:58;8.77;;;2.70;;
26686;SDS011;14298;50.900;4.648;2023-07-02T12:49:26;2.83;;;1.92;;
26686;SDS011;14298;50.900;4.648;2023-07-02T12:51:54;7.50;;;3.50;;
26686;SDS011;14298;50.900;4.648;2023-07-02T12:54:22;5.37;;;3.07;;
26686;SDS011;14298;50.900;4.648;2023-07-02T12:56:50;3.77;;;2.37;;
26686;SDS011;14298;50.900;4.648;2023-07-02T12:59:18;10.30;;;3.67;;
26686;SDS011;14298;50.900;4.648;2023-07-02T13:01:46;4.27;;;2.80;;
26686;SDS011;14298;50.900;4.648;2023-07-02T13:04:14;4.72;;;3.17;;
26686;SDS011;14298;50.900;4.648;2023-07-02T13:06:42;3.53;;;2.87;;
26686;SDS011;14298;50.900;4.648;2023-07-02T13:09:12;6.13;;;2.90;;
26686;SDS011;14298;50.900;4.648;2023-07-02T13:11:40;7.77;;;2.63;;
26686;SDS011;14298;50.900;4.648;2023-07-02T13:14:08;3.80;;;2.87;;
26686;SDS011;14298;50.900;4.648;2023-07-02T13:16:36;7.87;;;3.52;;
26686;SDS011;14298;50.900;4.648;2023-07-02T13:19:04;3.27;;;2.73;;
26686;SDS011;14298;50.900;4.648;2023-07-02T13:21:32;5.47;;;3.20;;
26686;SDS011;14298;50.900;4.648;2023-07-02T13:24:00;4.00;;;2.50;;
26686;SDS011;14298;50.900;4.648;2023-07-02T13:26:28;2.33;;;1.87;;
26686;SDS011;14298;50.900;4.648;2023-07-02T13:28:56;2.72;;;1.98;;
26686;SDS011;14298;50.900;4.648;2023-07-02T13:31:24;3.57;;;2.73;;
26686;SDS011;14298;50.900;4.648;2023-07-02T13:33:52;9.67;;;2.87;;
26686;SDS011;14298;50.900;4.648;2023-07-02T13:36:20;4.70;;;2.60;;
26686;SDS011;14298;50.900;4.648;2023-07-02T13:38:48;6.53;;;3.00;;
26686;SDS011;14298;50.900;4.648;2023-07-02T13:41:16;6.87;;;3.43;;
26686;SDS011;14298;50.900;4.648;2023-07-02T13:43:45;4.33;;;2.67;;
26686;SDS011;14298;50.900;4.648;2023-07-02T13:46:13;5.97;;;2.45;;
26686;SDS011;14298;50.900;4.648;2023-07-02T13:48:41;4.83;;;2.83;;
26686;SDS011;14298;50.900;4.648;2023-07-02T13:51:10;4.43;;;2.50;;
26686;SDS011;14298;50.900;4.648;2023-07-02T13:53:38;4.37;;;2.10;;
26686;SDS011;14298;50.900;4.648;2023-07-02T13:56:06;5.03;;;2.17;;
26686;SDS011;14298;50.900;4.648;2023-07-02T14:01:15;5.37;;;2.90;;
26686;SDS011;14298;50.900;4.648;2023-07-02T14:03:43;2.85;;;2.30;;
26686;SDS011;14298;50.900;4.648;2023-07-02T14:06:11;4.73;;;3.03;;
26686;SDS011;14298;50.900;4.648;2023-07-02T14:08:39;7.40;;;2.03;;
26686;SDS011;14298;50.900;4.648;2023-07-02T14:11:07;3.27;;;2.30;;
26686;SDS011;14298;50.900;4.648;2023-07-02T14:13:35;4.70;;;2.40;;
26686;SDS011;14298;50.900;4.648;2023-07-02T14:16:03;2.80;;;2.30;;
26686;SDS011;14298;50.900;4.648;2023-07-02T14:18:31;5.10;;;3.33;;
26686;SDS011;14298;50.900;4.648;2023-07-02T14:20:59;10.40;;;2.75;;
26686;SDS011;14298;50.900;4.648;2023-07-02T14:23:28;6.15;;;2.90;;
26686;SDS011;14298;50.900;4.648;2023-07-02T14:25:56;9.13;;;3.53;;
26686;SDS011;14298;50.900;4.648;2023-07-02T14:28:24;7.65;;;2.47;;
26686;SDS011;14298;50.900;4.648;2023-07-02T14:30:56;5.47;;;2.52;;
26686;SDS011;14298;50.900;4.648;2023-07-02T14:33:25;3.52;;;2.12;;
26686;SDS011;14298;50.900;4.648;2023-07-02T14:35:53;4.87;;;2.37;;
26686;SDS011;14298;50.900;4.648;2023-07-02T14:38:22;5.15;;;2.72;;
26686;SDS011;14298;50.900;4.648;2023-07-02T14:40:50;4.07;;;2.73;;
26686;SDS011;14298;50.900;4.648;2023-07-02T14:43:18;3.33;;;2.02;;
26686;SDS011;14298;50.900;4.648;2023-07-02T14:45:47;3.22;;;1.87;;
26686;SDS011;14298;50.900;4.648;2023-07-02T14:48:15;4.28;;;2.67;;
26686;SDS011;14298;50.900;4.648;2023-07-02T14:50:51;4.47;;;2.30;;
26686;SDS011;14298;50.900;4.648;2023-07-02T14:53:19;4.12;;;1.80;;
26686;SDS011;14298;50.900;4.648;2023-07-02T14:55:48;3.83;;;2.33;;
26686;SDS011;14298;50.900;4.648;2023-07-02T14:58:16;5.55;;;2.33;;
26686;SDS011;14298;50.900;4.648;2023-07-02T15:00:45;4.20;;;2.35;;
26686;SDS011;14298;50.900;4.648;2023-07-02T15:03:14;4.10;;;1.93;;
26686;SDS011;14298;50.900;4.648;2023-07-02T15:05:42;2.35;;;2.15;;
26686;SDS011;14298;50.900;4.648;2023-07-02T15:08:10;7.75;;;2.35;;
26686;SDS011;14298;50.900;4.648;2023-07-02T15:10:46;3.97;;;2.30;;
26686;SDS011;14298;50.900;4.648;2023-07-02T15:13:15;2.87;;;1.93;;